Time;durP1;ratioP1;P1;durP2;ratioP2;P2;SDS_P1;SDS_P2;PMS_P1;PMS_P2;Temp;Humidity;BMP_temperature;BMP_pressure;BME280_temperature;BME280_humidity;BME280_pressure;Samples;Min_cycle;Max_cycle;Signal;HPM_P1;HPM_P2
2021/10/12 00:02:20;;;;;;;2.00;0.55;;;;;;;;;;5012664;28;20033;-62
2021/10/12 00:04:46;;;;;;;2.13;0.90;;;;;;;;;;5012806;28;20428;-61
2021/10/12 00:07:12;;;;;;;2.25;0.68;;;;;;;;;;5012763;28;20045;-61
2021/10/12 00:09:38;;;;;;;4.70;2.15;;;;;;;;;;5012422;28;20032;-61
2021/10/12 00:12:04;;;;;;;1.65;0.70;;;;;;;;;;5080493;28;20034;-62
2021/10/12 00:14:30;;;;;;;2.50;0.80;;;;;;;;;;5012553;28;20021;-61
2021/10/12 00:16:56;;;;;;;3.15;0.80;;;;;;;;;;5012760;28;20136;-61
2021/10/12 00:19:22;;;;;;;4.55;0.80;;;;;;;;;;5080271;28;20133;-62
2021/10/12 00:21:48;;;;;;;2.85;0.73;;;;;;;;;;5012556;28;20057;-62
2021/10/12 00:24:14;;;;;;;3.08;0.90;;;;;;;;;;5080622;28;20485;-62
2021/10/12 00:26:40;;;;;;;1.65;0.68;;;;;;;;;;5012442;28;20053;-62
2021/10/12 00:29:06;;;;;;;1.80;0.70;;;;;;;;;;5136565;27;20379;-62
2021/10/12 00:31:32;;;;;;;1.95;0.70;;;;;;;;;;5136247;27;20032;-62
2021/10/12 00:33:58;;;;;;;2.42;0.80;;;;;;;;;;5136407;27;20799;-61
2021/10/12 00:36:24;;;;;;;8.38;0.90;;;;;;;;;;5136297;27;20106;-61
2021/10/12 00:38:50;;;;;;;5.65;0.73;;;;;;;;;;5136317;27;20043;-62
2021/10/12 00:41:16;;;;;;;4.93;0.63;;;;;;;;;;5136194;27;20027;-62
2021/10/12 00:43:42;;;;;;;3.47;0.70;;;;;;;;;;5136129;27;20477;-61
2021/10/12 00:46:08;;;;;;;7.20;0.73;;;;;;;;;;5136144;27;20027;-62
2021/10/12 00:48:34;;;;;;;1.35;0.50;;;;;;;;;;5117994;27;20029;-63
2021/10/12 00:51:00;;;;;;;3.08;0.70;;;;;;;;;;5062703;27;20024;-61
2021/10/12 00:53:26;;;;;;;1.85;0.85;;;;;;;;;;5012020;28;20059;-62
2021/10/12 00:55:52;;;;;;;2.65;0.60;;;;;;;;;;5011916;28;20026;-61
2021/10/12 00:58:19;;;;;;;3.53;0.60;;;;;;;;;;5011760;28;20436;-61
2021/10/12 01:00:45;;;;;;;1.20;0.60;;;;;;;;;;5079976;28;20026;-61
2021/10/12 01:03:10;;;;;;;4.38;0.60;;;;;;;;;;5011942;28;20029;-61
2021/10/12 01:05:37;;;;;;;3.10;0.60;;;;;;;;;;5011862;28;20411;-61
2021/10/12 01:08:03;;;;;;;1.88;0.57;;;;;;;;;;5020440;28;20040;-61
2021/10/12 01:10:29;;;;;;;2.83;0.75;;;;;;;;;;5031502;28;20112;-61
2021/10/12 01:12:56;;;;;;;2.30;0.52;;;;;;;;;;5031560;28;20036;-62
2021/10/12 01:15:22;;;;;;;7.40;0.70;;;;;;;;;;5031848;28;20036;-63
2021/10/12 01:17:48;;;;;;;1.85;0.60;;;;;;;;;;5031525;28;20054;-62
2021/10/12 01:20:17;;;;;;;2.60;0.85;;;;;;;;;;5099778;28;20021;-63
2021/10/12 01:22:45;;;;;;;3.80;0.55;;;;;;;;;;5029899;28;20067;-62
2021/10/12 01:25:11;;;;;;;5.03;0.73;;;;;;;;;;5099544;28;20480;-61
2021/10/12 01:27:38;;;;;;;4.88;0.57;;;;;;;;;;5072080;27;20042;-62
2021/10/12 01:30:05;;;;;;;2.53;0.70;;;;;;;;;;5135227;27;20019;-62
2021/10/12 01:32:31;;;;;;;1.23;0.50;;;;;;;;;;5135071;27;20135;-62
2021/10/12 01:35:00;;;;;;;2.55;0.70;;;;;;;;;;5116951;27;20023;-62
2021/10/12 01:37:28;;;;;;;2.92;0.90;;;;;;;;;;5134984;27;20051;-63
2021/10/12 01:39:54;;;;;;;1.52;0.55;;;;;;;;;;5135298;27;20467;-62
2021/10/12 01:42:20;;;;;;;1.55;0.60;;;;;;;;;;5135163;27;20024;-62
2021/10/12 01:44:46;;;;;;;2.42;0.70;;;;;;;;;;5135219;27;20027;-61
2021/10/12 01:47:12;;;;;;;3.28;0.85;;;;;;;;;;5134879;27;20039;-62
2021/10/12 01:49:38;;;;;;;1.15;0.60;;;;;;;;;;5134930;27;20039;-61
2021/10/12 01:52:05;;;;;;;4.93;0.82;;;;;;;;;;5135220;27;20027;-62
2021/10/12 01:54:31;;;;;;;5.68;0.50;;;;;;;;;;5134782;27;20471;-62
2021/10/12 01:56:57;;;;;;;1.48;0.55;;;;;;;;;;5099036;27;20477;-62
2021/10/12 01:59:23;;;;;;;1.20;0.52;;;;;;;;;;5011065;28;20061;-62
2021/10/12 02:01:50;;;;;;;4.28;0.60;;;;;;;;;;5011619;28;20018;-62
2021/10/12 02:04:16;;;;;;;0.63;0.50;;;;;;;;;;5011532;28;20061;-62
2021/10/12 02:06:42;;;;;;;1.95;0.50;;;;;;;;;;5010832;28;20438;-62
2021/10/12 02:09:08;;;;;;;2.15;0.73;;;;;;;;;;5010489;28;20075;-62
2021/10/12 02:11:34;;;;;;;2.28;0.40;;;;;;;;;;5010653;28;20025;-62
2021/10/12 02:14:03;;;;;;;3.20;0.80;;;;;;;;;;5025807;28;20030;-62
2021/10/12 02:16:29;;;;;;;5.13;0.70;;;;;;;;;;5030569;28;20018;-64
2021/10/12 02:18:54;;;;;;;4.35;0.63;;;;;;;;;;5030566;28;20105;-62
2021/10/12 02:21:20;;;;;;;4.80;0.70;;;;;;;;;;5030332;28;20435;-62
2021/10/12 02:23:46;;;;;;;1.38;0.70;;;;;;;;;;5030475;28;20067;-61
2021/10/12 02:26:12;;;;;;;3.05;0.50;;;;;;;;;;5030144;28;20547;-62
2021/10/12 02:28:38;;;;;;;2.55;0.43;;;;;;;;;;5030628;28;20133;-61
2021/10/12 02:31:04;;;;;;;1.95;0.60;;;;;;;;;;5030229;28;20075;-62
2021/10/12 02:33:30;;;;;;;2.88;0.80;;;;;;;;;;5098392;28;20052;-62
2021/10/12 02:35:56;;;;;;;2.42;0.75;;;;;;;;;;5030165;28;20069;-62
2021/10/12 02:38:22;;;;;;;1.85;0.57;;;;;;;;;;5030018;28;20560;-62
2021/10/12 02:40:52;;;;;;;1.95;0.50;;;;;;;;;;5030307;28;20025;-62
2021/10/12 02:43:18;;;;;;;1.48;0.57;;;;;;;;;;5030134;28;20022;-62
2021/10/12 02:45:44;;;;;;;4.65;0.60;;;;;;;;;;5014623;28;20476;-62
2021/10/12 02:48:10;;;;;;;6.47;0.95;;;;;;;;;;5010404;28;20045;-61
2021/10/12 02:50:36;;;;;;;7.63;0.77;;;;;;;;;;5010217;28;20022;-62
2021/10/12 02:53:02;;;;;;;1.88;0.70;;;;;;;;;;5010490;28;20045;-62
2021/10/12 02:55:28;;;;;;;1.70;0.70;;;;;;;;;;5010423;28;20029;-62
2021/10/12 02:57:54;;;;;;;1.77;0.77;;;;;;;;;;5077768;28;20030;-63
2021/10/12 03:00:20;;;;;;;4.35;0.60;;;;;;;;;;5077699;28;20022;-62
2021/10/12 03:02:46;;;;;;;3.72;0.70;;;;;;;;;;5010083;28;20030;-62
2021/10/12 03:05:12;;;;;;;2.45;0.65;;;;;;;;;;5010097;28;20523;-62
2021/10/12 03:07:39;;;;;;;2.78;0.60;;;;;;;;;;5009822;28;20034;-62
2021/10/12 03:10:06;;;;;;;2.35;0.63;;;;;;;;;;5077816;28;20018;-62
2021/10/12 03:12:32;;;;;;;1.42;0.60;;;;;;;;;;5009585;28;20033;-62
2021/10/12 03:14:58;;;;;;;4.47;0.50;;;;;;;;;;5010042;28;20350;-62
2021/10/12 03:17:24;;;;;;;2.30;0.70;;;;;;;;;;5009891;28;20034;-62
2021/10/12 03:19:50;;;;;;;7.03;0.77;;;;;;;;;;5010137;28;20026;-61
2021/10/12 03:22:16;;;;;;;2.90;0.75;;;;;;;;;;5011350;28;20483;-62
2021/10/12 03:24:42;;;;;;;6.32;0.80;;;;;;;;;;5081740;28;20071;-61
2021/10/12 03:27:09;;;;;;;2.78;0.90;;;;;;;;;;5036946;27;20467;-61
2021/10/12 03:29:35;;;;;;;4.78;0.80;;;;;;;;;;5097476;27;20477;-62
2021/10/12 03:32:01;;;;;;;3.35;0.77;;;;;;;;;;5032986;28;20030;-61
2021/10/12 03:34:28;;;;;;;1.95;0.82;;;;;;;;;;5101772;28;20021;-61
2021/10/12 03:36:54;;;;;;;3.00;0.75;;;;;;;;;;5032770;28;20469;-62
2021/10/12 03:39:21;;;;;;;4.05;0.70;;;;;;;;;;5033024;28;20032;-62
2021/10/12 03:41:47;;;;;;;2.47;0.73;;;;;;;;;;5032899;28;20029;-62
2021/10/12 03:44:13;;;;;;;2.53;0.90;;;;;;;;;;5101657;28;20032;-62
2021/10/12 03:46:38;;;;;;;2.08;0.90;;;;;;;;;;5032674;28;20736;-62
2021/10/12 03:49:04;;;;;;;3.28;0.70;;;;;;;;;;5101348;28;20022;-62
2021/10/12 03:51:30;;;;;;;2.60;0.70;;;;;;;;;;5101286;28;20033;-62
2021/10/12 03:53:56;;;;;;;3.67;0.73;;;;;;;;;;5032622;28;20430;-62
2021/10/12 03:56:22;;;;;;;3.45;0.88;;;;;;;;;;5032562;28;20029;-62
2021/10/12 03:58:49;;;;;;;7.07;0.85;;;;;;;;;;5032642;28;20048;-62
2021/10/12 04:01:15;;;;;;;1.55;0.68;;;;;;;;;;5031529;28;20112;-61
2021/10/12 04:03:44;;;;;;;7.40;0.95;;;;;;;;;;5032504;28;20112;-63
2021/10/12 04:06:10;;;;;;;1.58;0.60;;;;;;;;;;5032425;28;20036;-62
2021/10/12 04:08:36;;;;;;;2.50;0.63;;;;;;;;;;5032445;28;20022;-62
2021/10/12 04:11:02;;;;;;;2.33;0.80;;;;;;;;;;5032497;28;20033;-63
2021/10/12 04:13:28;;;;;;;3.20;0.80;;;;;;;;;;5032384;28;20029;-62
2021/10/12 04:15:54;;;;;;;2.47;0.85;;;;;;;;;;5032629;28;20026;-62
2021/10/12 04:18:20;;;;;;;3.65;0.77;;;;;;;;;;5031201;28;20384;-62
2021/10/12 04:20:46;;;;;;;3.00;0.90;;;;;;;;;;5032296;28;20029;-62
2021/10/12 04:23:13;;;;;;;2.30;0.80;;;;;;;;;;5032118;28;20499;-62
2021/10/12 04:25:40;;;;;;;2.25;0.60;;;;;;;;;;5032042;28;20061;-61
2021/10/12 04:28:11;;;;;;;2.33;0.88;;;;;;;;;;5093492;27;20027;-61
2021/10/12 04:30:37;;;;;;;1.52;0.65;;;;;;;;;;5136618;27;20019;-61
2021/10/12 04:33:03;;;;;;;2.35;0.75;;;;;;;;;;5136107;27;20397;-61
2021/10/12 04:35:29;;;;;;;2.15;0.80;;;;;;;;;;5136554;27;20023;-62
2021/10/12 04:37:55;;;;;;;0.85;0.50;;;;;;;;;;5136194;27;20439;-62
2021/10/12 04:40:21;;;;;;;1.88;0.70;;;;;;;;;;5136537;27;20034;-63
2021/10/12 04:42:47;;;;;;;2.55;0.75;;;;;;;;;;5136562;27;20023;-61
2021/10/12 04:45:13;;;;;;;4.28;0.85;;;;;;;;;;5136224;27;20124;-62
2021/10/12 04:47:39;;;;;;;2.00;0.75;;;;;;;;;;5136200;27;20031;-61
2021/10/12 04:50:06;;;;;;;2.33;0.80;;;;;;;;;;5084806;27;20029;-61
2021/10/12 04:52:32;;;;;;;2.72;0.77;;;;;;;;;;5031732;28;20037;-62
2021/10/12 04:54:58;;;;;;;1.65;0.77;;;;;;;;;;5031942;28;20036;-62
2021/10/12 04:57:24;;;;;;;1.23;0.70;;;;;;;;;;5031741;28;20038;-62
2021/10/12 04:59:50;;;;;;;1.45;0.70;;;;;;;;;;5031677;28;20033;-61
2021/10/12 05:02:16;;;;;;;1.60;0.80;;;;;;;;;;5031614;28;20108;-61
2021/10/12 05:04:42;;;;;;;4.00;1.13;;;;;;;;;;5031625;28;20025;-61
2021/10/12 05:07:08;;;;;;;1.80;0.73;;;;;;;;;;5031344;28;20044;-61
2021/10/12 05:09:34;;;;;;;1.48;0.80;;;;;;;;;;5031204;28;20018;-62
2021/10/12 05:12:00;;;;;;;0.90;0.60;;;;;;;;;;5031570;28;20118;-62
2021/10/12 05:14:26;;;;;;;2.15;0.80;;;;;;;;;;5031484;28;20022;-61
2021/10/12 05:16:54;;;;;;;3.28;0.82;;;;;;;;;;5031538;28;20026;-61
2021/10/12 05:19:21;;;;;;;5.43;0.70;;;;;;;;;;5030529;28;20128;-62
2021/10/12 05:21:47;;;;;;;0.80;0.50;;;;;;;;;;5031084;28;20026;-61
2021/10/12 05:24:12;;;;;;;3.03;0.90;;;;;;;;;;5031429;28;20028;-63
2021/10/12 05:26:38;;;;;;;2.67;0.80;;;;;;;;;;5030944;28;20057;-62
2021/10/12 05:29:05;;;;;;;1.67;0.80;;;;;;;;;;5134543;27;20027;-61
2021/10/12 05:31:31;;;;;;;3.22;0.98;;;;;;;;;;5135395;27;20031;-62
2021/10/12 05:33:57;;;;;;;2.28;0.88;;;;;;;;;;5135192;27;20027;-61
2021/10/12 05:36:22;;;;;;;2.33;1.00;;;;;;;;;;5133217;27;20023;-62
2021/10/12 05:38:48;;;;;;;1.13;0.73;;;;;;;;;;5099362;28;20184;-61
2021/10/12 05:41:14;;;;;;;1.58;0.70;;;;;;;;;;5031167;28;20029;-61
2021/10/12 05:43:40;;;;;;;1.77;0.90;;;;;;;;;;5098745;28;20025;-61
2021/10/12 05:46:06;;;;;;;1.67;0.80;;;;;;;;;;5030319;28;20026;-60
2021/10/12 05:48:33;;;;;;;1.35;0.88;;;;;;;;;;5031094;28;20473;-61
2021/10/12 05:50:59;;;;;;;2.13;0.88;;;;;;;;;;5031082;28;20025;-61
2021/10/12 05:56:23;;;;;;;0.95;0.60;;;;;;;;;;5043963;28;20422;-62
2021/10/12 05:58:49;;;;;;;1.83;0.70;;;;;;;;;;5030764;28;20029;-61
2021/10/12 06:01:16;;;;;;;1.98;0.70;;;;;;;;;;5030761;28;20022;-62
2021/10/12 06:03:42;;;;;;;4.47;0.82;;;;;;;;;;5099009;28;20045;-62
2021/10/12 06:06:08;;;;;;;2.28;0.77;;;;;;;;;;5030516;28;20043;-62
2021/10/12 06:08:36;;;;;;;1.80;0.80;;;;;;;;;;5020745;28;20069;-62
2021/10/12 06:11:02;;;;;;;1.92;0.85;;;;;;;;;;5011058;28;20068;-62
2021/10/12 06:13:29;;;;;;;2.65;0.82;;;;;;;;;;5078396;28;20388;-62
2021/10/12 06:15:55;;;;;;;3.35;1.02;;;;;;;;;;5010854;28;20026;-63
2021/10/12 06:18:21;;;;;;;2.58;0.80;;;;;;;;;;5010693;28;20030;-62
2021/10/12 06:20:48;;;;;;;6.55;1.38;;;;;;;;;;5078344;28;20358;-62
2021/10/12 06:23:14;;;;;;;2.40;0.90;;;;;;;;;;5010681;28;20087;-62
2021/10/12 06:25:40;;;;;;;1.85;0.70;;;;;;;;;;5023724;28;20492;-63
2021/10/12 06:28:06;;;;;;;3.28;1.00;;;;;;;;;;5091668;27;20038;-62
2021/10/12 06:30:33;;;;;;;1.67;0.77;;;;;;;;;;5134215;27;20029;-62
2021/10/12 06:32:59;;;;;;;2.10;0.90;;;;;;;;;;5134225;27;20127;-62
2021/10/12 06:35:27;;;;;;;3.55;0.73;;;;;;;;;;5134177;27;20486;-62
2021/10/12 06:37:53;;;;;;;1.98;1.00;;;;;;;;;;5133832;27;20054;-62
2021/10/12 06:40:19;;;;;;;9.43;1.10;;;;;;;;;;5115544;27;20065;-62
2021/10/12 06:42:45;;;;;;;10.68;1.13;;;;;;;;;;5116683;27;20394;-61
2021/10/12 06:45:11;;;;;;;11.60;1.30;;;;;;;;;;5046197;27;20078;-60
2021/10/12 06:47:38;;;;;;;7.75;1.45;;;;;;;;;;5096168;27;20065;-60
2021/10/12 06:50:04;;;;;;;6.38;1.17;;;;;;;;;;5115497;27;20526;-61
2021/10/12 06:52:30;;;;;;;10.63;1.95;;;;;;;;;;5118772;27;20030;-60
2021/10/12 06:54:56;;;;;;;8.20;1.85;;;;;;;;;;5058013;27;20373;-60
2021/10/12 06:57:22;;;;;;;9.30;1.67;;;;;;;;;;5097944;28;20437;-65
2021/10/12 06:59:48;;;;;;;20.35;1.25;;;;;;;;;;5029904;28;20021;-60
2021/10/12 07:02:14;;;;;;;7.47;1.20;;;;;;;;;;5029847;28;20036;-61
2021/10/12 07:04:40;;;;;;;9.35;1.35;;;;;;;;;;5029590;28;20025;-61
2021/10/12 07:07:06;;;;;;;11.30;1.95;;;;;;;;;;5097587;28;20029;-61
2021/10/12 07:09:32;;;;;;;15.73;1.83;;;;;;;;;;5029225;28;20026;-61
2021/10/12 07:11:58;;;;;;;10.02;1.40;;;;;;;;;;5029423;28;20364;-61
2021/10/12 07:14:24;;;;;;;8.85;1.88;;;;;;;;;;5029389;28;20029;-64
2021/10/12 07:16:50;;;;;;;8.82;1.27;;;;;;;;;;5029374;28;20100;-62
2021/10/12 07:19:18;;;;;;;8.75;1.50;;;;;;;;;;5029263;28;20032;-67
2021/10/12 07:21:45;;;;;;;11.02;1.48;;;;;;;;;;5029253;28;20018;-65
2021/10/12 07:24:11;;;;;;;4.38;1.20;;;;;;;;;;5097550;28;20033;-62
2021/10/12 07:26:38;;;;;;;5.50;1.48;;;;;;;;;;5017294;28;20060;-61
2021/10/12 07:29:05;;;;;;;8.90;1.92;;;;;;;;;;5114324;28;20023;-61
2021/10/12 07:31:31;;;;;;;9.90;1.52;;;;;;;;;;5133156;27;20023;-61
2021/10/12 07:33:58;;;;;;;12.40;1.35;;;;;;;;;;5114800;28;20026;-61
2021/10/12 07:36:24;;;;;;;7.72;1.50;;;;;;;;;;5132716;27;20023;-63
2021/10/12 07:38:50;;;;;;;6.85;1.48;;;;;;;;;;5132981;27;20114;-61
2021/10/12 07:41:16;;;;;;;11.57;1.80;;;;;;;;;;5114568;28;20019;-60
2021/10/12 07:43:42;;;;;;;7.00;1.73;;;;;;;;;;5089967;28;20136;-61
2021/10/12 07:46:08;;;;;;;17.48;1.70;;;;;;;;;;5009194;28;20459;-62
2021/10/12 07:48:34;;;;;;;8.93;1.50;;;;;;;;;;5009123;28;20055;-62
2021/10/12 07:51:00;;;;;;;13.15;1.10;;;;;;;;;;5009164;28;20496;-63
2021/10/12 07:53:28;;;;;;;15.25;1.08;;;;;;;;;;5009156;28;20026;-62
2021/10/12 07:55:58;;;;;;;6.68;1.50;;;;;;;;;;5076854;28;20065;-62
2021/10/12 07:58:24;;;;;;;10.35;1.40;;;;;;;;;;5009001;28;20022;-62
2021/10/12 08:00:50;;;;;;;4.13;1.13;;;;;;;;;;5008952;28;20111;-62
2021/10/12 08:03:17;;;;;;;6.40;1.08;;;;;;;;;;5052651;28;20061;-62
2021/10/12 08:05:43;;;;;;;8.43;1.35;;;;;;;;;;5132489;28;20091;-63
2021/10/12 08:08:09;;;;;;;5.93;1.25;;;;;;;;;;5134248;27;20038;-63
2021/10/12 08:10:37;;;;;;;5.70;1.05;;;;;;;;;;5136434;27;20068;-63
2021/10/12 08:13:10;;;;;;;14.45;1.33;;;;;;;;;;5136773;27;20027;-66
2021/10/12 08:15:38;;;;;;;7.15;1.10;;;;;;;;;;5136481;27;20019;-60
2021/10/12 08:18:04;;;;;;;8.65;1.45;;;;;;;;;;5079488;27;20472;-63
2021/10/12 08:20:30;;;;;;;16.73;1.65;;;;;;;;;;5031953;28;20159;-63
2021/10/12 08:22:57;;;;;;;6.25;1.27;;;;;;;;;;5036714;27;20039;-65
2021/10/12 08:25:23;;;;;;;9.63;1.40;;;;;;;;;;5117120;27;20469;-63
2021/10/12 08:27:49;;;;;;;14.48;1.40;;;;;;;;;;5135838;27;20027;-61
2021/10/12 08:30:15;;;;;;;12.10;1.50;;;;;;;;;;5135766;27;20034;-63
2021/10/12 08:32:43;;;;;;;9.98;1.13;;;;;;;;;;5121531;27;20038;-64
2021/10/12 08:35:09;;;;;;;10.38;1.48;;;;;;;;;;5031238;28;20025;-61
2021/10/12 08:37:39;;;;;;;10.57;1.40;;;;;;;;;;5031201;28;20069;-61
2021/10/12 08:40:09;;;;;;;10.63;1.30;;;;;;;;;;5075629;27;20087;-61
2021/10/12 08:42:35;;;;;;;7.75;1.25;;;;;;;;;;5136038;27;20045;-61
2021/10/12 08:45:04;;;;;;;7.57;1.30;;;;;;;;;;5135242;27;20019;-63
2021/10/12 08:47:31;;;;;;;5.38;1.27;;;;;;;;;;5115856;27;20083;-64
2021/10/12 08:49:58;;;;;;;7.13;1.52;;;;;;;;;;5134102;27;20030;-62
2021/10/12 08:52:25;;;;;;;10.45;1.25;;;;;;;;;;5134221;27;20082;-65
2021/10/12 08:54:52;;;;;;;11.68;1.70;;;;;;;;;;5134162;27;20023;-62
2021/10/12 08:57:27;;;;;;;7.35;1.73;;;;;;;;;;5102907;27;20055;-61
2021/10/12 08:59:54;;;;;;;12.13;1.50;;;;;;;;;;5085687;27;20049;-62
2021/10/12 09:02:23;;;;;;;6.93;1.00;;;;;;;;;;5135320;27;20031;-63
2021/10/12 09:04:50;;;;;;;11.45;1.65;;;;;;;;;;5135359;27;20019;-67
2021/10/12 09:07:21;;;;;;;7.00;1.00;;;;;;;;;;5016801;28;20045;-62
2021/10/12 09:09:47;;;;;;;14.32;2.10;;;;;;;;;;5011405;28;20064;-60
2021/10/12 09:12:13;;;;;;;12.57;1.45;;;;;;;;;;5010971;28;20025;-61
2021/10/12 09:14:59;;;;;;;57.00;2.40;;;;;;;;;;5075402;27;20031;-61
2021/10/12 09:17:29;;;;;;;47.33;2.22;;;;;;;;;;5134780;27;20027;-61
2021/10/12 09:19:55;;;;;;;38.83;2.78;;;;;;;;;;5099030;28;20095;-60
2021/10/12 09:22:21;;;;;;;26.70;1.65;;;;;;;;;;5020077;28;20034;-61
2021/10/12 09:24:48;;;;;;;25.50;1.73;;;;;;;;;;5010532;28;20104;-62
2021/10/12 09:27:16;;;;;;;8.50;1.60;;;;;;;;;;5039126;27;20027;-61
2021/10/12 09:32:11;;;;;;;66.45;4.00;;;;;;;;;;5089256;27;20507;-60
2021/10/12 09:34:38;;;;;;;45.72;2.30;;;;;;;;;;5030607;28;20100;-69
2021/10/12 09:37:04;;;;;;;63.58;2.60;;;;;;;;;;5098486;28;20053;-64
2021/10/12 09:39:31;;;;;;;44.38;2.97;;;;;;;;;;5030913;28;20025;-66
2021/10/12 09:41:58;;;;;;;31.95;2.42;;;;;;;;;;5099334;28;20119;-67
2021/10/12 09:44:24;;;;;;;37.55;2.78;;;;;;;;;;5030761;28;20029;-65
2021/10/12 09:46:51;;;;;;;51.30;2.70;;;;;;;;;;5030771;28;20033;-65
2021/10/12 09:49:25;;;;;;;64.85;2.65;;;;;;;;;;5099177;28;20125;-67
2021/10/12 09:51:54;;;;;;;64.78;3.10;;;;;;;;;;5099344;28;20083;-68
2021/10/12 09:54:24;;;;;;;32.10;2.05;;;;;;;;;;5029744;28;20014;-68
2021/10/12 09:56:50;;;;;;;37.85;2.08;;;;;;;;;;5030587;28;20025;-69
2021/10/12 09:59:16;;;;;;;45.08;2.90;;;;;;;;;;5030392;28;20032;-68
2021/10/12 10:01:45;;;;;;;60.42;4.20;;;;;;;;;;5098785;28;20061;-68
2021/10/12 10:04:11;;;;;;;71.82;4.15;;;;;;;;;;5030641;28;20108;-61
2021/10/12 10:06:43;;;;;;;70.07;3.65;;;;;;;;;;5117737;27;20071;-67
2021/10/12 10:09:11;;;;;;;60.47;3.55;;;;;;;;;;5117735;27;20636;-65
2021/10/12 10:11:42;;;;;;;74.20;3.58;;;;;;;;;;5116466;27;20470;-69
2021/10/12 10:14:09;;;;;;;53.42;2.92;;;;;;;;;;5135082;27;20034;-70
2021/10/12 10:16:37;;;;;;;50.30;3.63;;;;;;;;;;5134692;27;20173;-70
2021/10/12 10:19:05;;;;;;;36.33;2.58;;;;;;;;;;5131636;27;20030;-69
2021/10/12 10:21:36;;;;;;;45.72;3.30;;;;;;;;;;5097541;27;20056;-70
2021/10/12 10:24:09;;;;;;;37.17;2.83;;;;;;;;;;5116374;27;20031;-69
2021/10/12 10:26:36;;;;;;;37.10;2.78;;;;;;;;;;5010949;28;20813;-68
2021/10/12 10:29:23;;;;;;;27.60;2.47;;;;;;;;;;5054989;27;20072;-69
2021/10/12 10:31:51;;;;;;;30.88;2.70;;;;;;;;;;5134191;27;20045;-68
2021/10/12 10:34:26;;;;;;;35.05;2.35;;;;;;;;;;5134153;27;20035;-69
2021/10/12 10:37:12;;;;;;;48.33;3.10;;;;;;;;;;5134065;27;20035;-66
2021/10/12 10:39:39;;;;;;;29.25;4.05;;;;;;;;;;5010696;28;20041;-71
2021/10/12 10:42:05;;;;;;;29.25;2.47;;;;;;;;;;5010417;28;20030;-67
2021/10/12 10:44:59;;;;;;;28.77;3.10;;;;;;;;;;5172542;27;20381;-65
2021/10/12 10:47:43;;;;;;;22.95;2.45;;;;;;;;;;5131837;27;20030;-66
2021/10/12 10:50:11;;;;;;;20.08;2.58;;;;;;;;;;5150905;27;20450;-69
2021/10/12 10:52:51;;;;;;;21.52;2.70;;;;;;;;;;5151130;27;20063;-64
2021/10/12 10:55:21;;;;;;;29.30;2.55;;;;;;;;;;5146561;27;20491;-66
2021/10/12 10:58:06;;;;;;;10.93;1.50;;;;;;;;;;5129998;28;20075;-63
2021/10/12 11:00:47;;;;;;;24.02;2.10;;;;;;;;;;5130434;28;20340;-67
2021/10/12 11:03:31;;;;;;;14.88;1.48;;;;;;;;;;5130444;28;20471;-66
2021/10/12 11:05:58;;;;;;;23.88;1.60;;;;;;;;;;5130552;28;20027;-67
2021/10/12 11:08:28;;;;;;;14.68;1.50;;;;;;;;;;5122937;28;20023;-66
2021/10/12 11:11:12;;;;;;;18.02;2.20;;;;;;;;;;5130636;28;20058;-67
2021/10/12 11:13:38;;;;;;;19.85;2.15;;;;;;;;;;5130230;28;20091;-66
2021/10/12 11:16:09;;;;;;;11.32;1.83;;;;;;;;;;5111932;28;20347;-66
2021/10/12 11:18:38;;;;;;;18.40;1.75;;;;;;;;;;5112055;28;20035;-66
2021/10/12 11:21:11;;;;;;;11.15;1.38;;;;;;;;;;5113848;28;20485;-65
2021/10/12 11:23:39;;;;;;;12.93;1.52;;;;;;;;;;5108953;28;20122;-66
2021/10/12 11:26:05;;;;;;;17.40;2.10;;;;;;;;;;5108826;28;20031;-68
2021/10/12 11:28:32;;;;;;;8.80;1.35;;;;;;;;;;5116989;28;20065;-68
2021/10/12 11:31:03;;;;;;;15.00;1.92;;;;;;;;;;5118112;28;20016;-66
2021/10/12 11:33:33;;;;;;;26.10;1.80;;;;;;;;;;5120025;28;20008;-65
2021/10/12 11:36:00;;;;;;;10.73;1.38;;;;;;;;;;5112190;28;20103;-67
2021/10/12 11:38:34;;;;;;;11.52;1.48;;;;;;;;;;5129901;28;20019;-63
2021/10/12 11:41:12;;;;;;;12.27;1.50;;;;;;;;;;5121960;28;20416;-66
2021/10/12 11:43:40;;;;;;;14.75;1.77;;;;;;;;;;5109043;28;20054;-67
2021/10/12 11:46:06;;;;;;;6.88;1.13;;;;;;;;;;5109297;28;20041;-66
2021/10/12 11:48:35;;;;;;;42.10;1.70;;;;;;;;;;5109187;28;20054;-65
2021/10/12 11:51:15;;;;;;;12.15;1.30;;;;;;;;;;5129770;28;20427;-65
2021/10/12 11:53:42;;;;;;;28.73;1.63;;;;;;;;;;5126044;28;20070;-66
2021/10/12 11:56:09;;;;;;;17.52;1.48;;;;;;;;;;5077248;28;20051;-67
2021/10/12 11:58:35;;;;;;;8.70;1.17;;;;;;;;;;5095430;28;20026;-66
2021/10/12 12:01:01;;;;;;;12.45;0.90;;;;;;;;;;5095407;28;20069;-67
2021/10/12 12:03:27;;;;;;;9.63;0.85;;;;;;;;;;5095467;28;20039;-67
2021/10/12 12:05:54;;;;;;;7.57;0.93;;;;;;;;;;5095588;28;20016;-66
2021/10/12 12:08:20;;;;;;;4.55;0.90;;;;;;;;;;5095227;28;20039;-66
2021/10/12 12:10:47;;;;;;;5.75;0.70;;;;;;;;;;5077169;28;20356;-67
2021/10/12 12:13:13;;;;;;;5.93;0.95;;;;;;;;;;5113258;28;20032;-66
2021/10/12 12:15:43;;;;;;;8.48;0.70;;;;;;;;;;5115628;28;20028;-68
2021/10/12 12:18:16;;;;;;;6.35;0.85;;;;;;;;;;5115352;28;20028;-67
2021/10/12 12:20:42;;;;;;;;;;;;;;;;;;5114259;28;20119;-68
2021/10/12 12:23:08;;;;;;;5.18;0.70;;;;;;;;;;5110286;28;20025;-65
2021/10/12 12:25:34;;;;;;;7.82;0.90;;;;;;;;;;5115513;28;20031;-66
2021/10/12 12:28:00;;;;;;;16.95;0.80;;;;;;;;;;5110952;28;20409;-66
2021/10/12 12:30:32;;;;;;;2.70;0.70;;;;;;;;;;5111308;28;20036;-65
2021/10/12 12:32:59;;;;;;;4.05;0.70;;;;;;;;;;5076886;28;20028;-67
2021/10/12 12:35:25;;;;;;;4.53;0.70;;;;;;;;;;5099479;28;20486;-66
2021/10/12 12:37:58;;;;;;;1.67;0.60;;;;;;;;;;5096750;28;20032;-68
2021/10/12 12:40:24;;;;;;;4.15;1.02;;;;;;;;;;5096599;28;20028;-67
2021/10/12 12:42:50;;;;;;;4.47;1.00;;;;;;;;;;5079528;28;20077;-66
2021/10/12 12:45:17;;;;;;;3.80;0.70;;;;;;;;;;5005506;28;20062;-67
2021/10/12 12:47:54;;;;;;;2.78;0.77;;;;;;;;;;5011422;28;20023;-66
2021/10/12 12:50:24;;;;;;;5.70;0.95;;;;;;;;;;5011865;28;20481;-68
2021/10/12 12:52:50;;;;;;;4.88;0.80;;;;;;;;;;5011609;28;20062;-66
2021/10/12 12:55:32;;;;;;;4.35;0.93;;;;;;;;;;5011479;28;20521;-69
2021/10/12 12:57:58;;;;;;;3.73;0.77;;;;;;;;;;5011156;28;20041;-66
2021/10/12 13:00:24;;;;;;;5.57;0.75;;;;;;;;;;5011275;28;20026;-68
2021/10/12 13:02:53;;;;;;;7.32;0.77;;;;;;;;;;4992015;28;20026;-68
2021/10/12 13:05:20;;;;;;;5.07;0.75;;;;;;;;;;4991698;28;20030;-67
2021/10/12 13:07:46;;;;;;;6.32;1.55;;;;;;;;;;5058127;28;20575;-65
2021/10/12 13:10:12;;;;;;;3.58;0.77;;;;;;;;;;4991587;28;20057;-65
2021/10/12 13:12:38;;;;;;;3.42;0.60;;;;;;;;;;4991534;28;20121;-66
2021/10/12 13:15:04;;;;;;;5.45;0.77;;;;;;;;;;5006272;28;20033;-68
2021/10/12 13:17:30;;;;;;;2.10;0.70;;;;;;;;;;5011227;28;20071;-66
2021/10/12 13:19:56;;;;;;;3.10;0.73;;;;;;;;;;5078908;28;20018;-66
2021/10/12 13:22:22;;;;;;;3.10;0.80;;;;;;;;;;4995161;28;20034;-66
2021/10/12 13:24:49;;;;;;;4.18;0.90;;;;;;;;;;4991862;28;20067;-67
2021/10/12 13:27:15;;;;;;;4.28;0.60;;;;;;;;;;4991675;28;20037;-66
2021/10/12 13:29:41;;;;;;;6.07;0.70;;;;;;;;;;4990908;28;20034;-66
2021/10/12 13:32:07;;;;;;;8.02;0.95;;;;;;;;;;4990538;28;20030;-64
2021/10/12 13:34:33;;;;;;;6.65;0.90;;;;;;;;;;4989840;28;20018;-66
2021/10/12 13:36:59;;;;;;;7.70;0.88;;;;;;;;;;5009369;28;20029;-67
2021/10/12 13:39:25;;;;;;;8.05;0.88;;;;;;;;;;5008902;28;20654;-66
2021/10/12 13:41:56;;;;;;;4.38;0.80;;;;;;;;;;5008465;28;20037;-66
2021/10/12 13:44:22;;;;;;;4.20;1.02;;;;;;;;;;5097247;28;20037;-67
2021/10/12 13:46:48;;;;;;;6.13;0.98;;;;;;;;;;5111981;28;20031;-66
2021/10/12 13:49:14;;;;;;;4.53;0.60;;;;;;;;;;5099702;28;20059;-66
2021/10/12 13:51:40;;;;;;;3.70;0.68;;;;;;;;;;5104445;28;20052;-66
2021/10/12 13:54:06;;;;;;;6.18;0.75;;;;;;;;;;5096960;28;20032;-66
2021/10/12 13:56:32;;;;;;;5.13;0.80;;;;;;;;;;5113105;28;20043;-66
2021/10/12 13:58:58;;;;;;;9.50;0.93;;;;;;;;;;5112780;28;20076;-66
2021/10/12 14:01:24;;;;;;;4.43;0.93;;;;;;;;;;5112666;28;20114;-66
2021/10/12 14:03:52;;;;;;;3.63;0.70;;;;;;;;;;5095029;28;20429;-66
2021/10/12 14:06:18;;;;;;;6.00;0.80;;;;;;;;;;5113066;28;20374;-66
2021/10/12 14:08:44;;;;;;;8.13;0.82;;;;;;;;;;5103678;28;20028;-67
2021/10/12 14:11:10;;;;;;;5.25;0.80;;;;;;;;;;5085516;28;20073;-65
2021/10/12 14:13:36;;;;;;;5.63;0.88;;;;;;;;;;5102556;28;20080;-65
2021/10/12 14:16:03;;;;;;;2.92;0.60;;;;;;;;;;5105746;28;20019;-70
2021/10/12 14:18:30;;;;;;;6.22;0.70;;;;;;;;;;5098193;28;20032;-68
2021/10/12 14:20:56;;;;;;;3.85;0.73;;;;;;;;;;5082332;28;20027;-66
2021/10/12 14:23:23;;;;;;;3.78;0.65;;;;;;;;;;5105628;28;20088;-65
2021/10/12 14:25:49;;;;;;;5.90;0.80;;;;;;;;;;5082561;28;20065;-67
2021/10/12 14:28:16;;;;;;;7.97;0.88;;;;;;;;;;5094149;28;20483;-67
2021/10/12 14:30:45;;;;;;;6.47;0.88;;;;;;;;;;5091840;28;20471;-65
2021/10/12 14:33:12;;;;;;;10.43;0.93;;;;;;;;;;5074740;28;20020;-67
2021/10/12 14:35:38;;;;;;;6.78;0.77;;;;;;;;;;5096337;28;20525;-64
2021/10/12 14:38:04;;;;;;;5.95;0.93;;;;;;;;;;5102176;28;20023;-63
2021/10/12 14:40:30;;;;;;;6.63;1.00;;;;;;;;;;5103114;28;20024;-67
2021/10/12 14:42:56;;;;;;;5.60;1.05;;;;;;;;;;5104138;28;20101;-67
2021/10/12 14:45:25;;;;;;;9.48;0.90;;;;;;;;;;5102792;28;20023;-66
2021/10/12 14:47:51;;;;;;;9.10;1.23;;;;;;;;;;5081836;28;20016;-69